sensor_id;sensor_type;location;lat;lon;timestamp;pressure;altitude;pressure_sealevel;temperature;humidity
50394;BME280;36308;46.312;25.288;2023-03-19T00:02:16;96557.72;;;0.31;57.01
50394;BME280;36308;46.312;25.288;2023-03-19T00:04:41;96563.03;;;0.31;56.98
50394;BME280;36308;46.312;25.288;2023-03-19T00:07:07;96566.00;;;0.28;57.04
50394;BME280;36308;46.312;25.288;2023-03-19T00:09:32;96568.81;;;0.27;57.30
50394;BME280;36308;46.312;25.288;2023-03-19T00:11:58;96557.81;;;0.23;57.18
50394;BME280;36308;46.312;25.288;2023-03-19T00:14:23;96564.72;;;0.24;57.09
50394;BME280;36308;46.312;25.288;2023-03-19T00:16:50;96559.81;;;0.21;57.25
50394;BME280;36308;46.312;25.288;2023-03-19T00:19:15;96557.34;;;0.19;57.16
50394;BME280;36308;46.312;25.288;2023-03-19T00:21:41;96560.16;;;0.18;57.32
50394;BME280;36308;46.312;25.288;2023-03-19T00:24:07;96562.78;;;0.18;57.45
50394;BME280;36308;46.312;25.288;2023-03-19T00:26:35;96553.94;;;0.11;57.40
50394;BME280;36308;46.312;25.288;2023-03-19T00:29:01;96552.13;;;0.11;57.26
50394;BME280;36308;46.312;25.288;2023-03-19T00:31:28;96544.34;;;0.10;57.38
50394;BME280;36308;46.312;25.288;2023-03-19T00:33:56;96549.00;;;0.08;57.09
50394;BME280;36308;46.312;25.288;2023-03-19T00:36:25;96556.28;;;0.06;57.30
50394;BME280;36308;46.312;25.288;2023-03-19T00:38:51;96551.38;;;0.03;57.26
50394;BME280;36308;46.312;25.288;2023-03-19T00:41:17;96542.81;;;0.01;57.33
50394;BME280;36308;46.312;25.288;2023-03-19T00:43:43;96546.63;;;-0.02;57.44
50394;BME280;36308;46.312;25.288;2023-03-19T00:46:09;96543.84;;;-0.09;57.68
50394;BME280;36308;46.312;25.288;2023-03-19T00:48:36;96545.69;;;-0.09;57.57
50394;BME280;36308;46.312;25.288;2023-03-19T00:51:04;96542.56;;;-0.13;57.38
50394;BME280;36308;46.312;25.288;2023-03-19T00:53:29;96544.56;;;-0.15;57.90
50394;BME280;36308;46.312;25.288;2023-03-19T00:55:55;96540.47;;;-0.17;57.52
50394;BME280;36308;46.312;25.288;2023-03-19T00:58:20;96531.06;;;-0.20;57.91
50394;BME280;36308;46.312;25.288;2023-03-19T01:00:46;96535.88;;;-0.24;57.77
50394;BME280;36308;46.312;25.288;2023-03-19T01:03:11;96532.59;;;-0.26;58.09
50394;BME280;36308;46.312;25.288;2023-03-19T01:05:37;96529.47;;;-0.29;58.13
50394;BME280;36308;46.312;25.288;2023-03-19T01:08:02;96527.84;;;-0.30;57.79
50394;BME280;36308;46.312;25.288;2023-03-19T01:10:28;96529.19;;;-0.34;57.82
50394;BME280;36308;46.312;25.288;2023-03-19T01:12:53;96527.53;;;-0.35;58.22
50394;BME280;36308;46.312;25.288;2023-03-19T01:15:19;96532.19;;;-0.37;58.06
50394;BME280;36308;46.312;25.288;2023-03-19T01:17:44;96523.59;;;-0.39;57.97
50394;BME280;36308;46.312;25.288;2023-03-19T01:20:11;96520.31;;;-0.42;58.17
50394;BME280;36308;46.312;25.288;2023-03-19T01:22:44;96524.97;;;-0.44;58.30
50394;BME280;36308;46.312;25.288;2023-03-19T01:25:11;96527.00;;;-0.46;58.22
50394;BME280;36308;46.312;25.288;2023-03-19T01:27:38;96516.09;;;-0.51;58.29
50394;BME280;36308;46.312;25.288;2023-03-19T01:30:05;96520.41;;;-0.50;58.50
50394;BME280;36308;46.312;25.288;2023-03-19T01:32:31;96530.31;;;-0.52;58.53
50394;BME280;36308;46.312;25.288;2023-03-19T01:34:57;96524.41;;;-0.54;58.16
50394;BME280;36308;46.312;25.288;2023-03-19T01:37:24;96523.91;;;-0.57;58.28
50394;BME280;36308;46.312;25.288;2023-03-19T01:39:50;96521.44;;;-0.59;58.51
50394;BME280;36308;46.312;25.288;2023-03-19T01:42:15;96529.53;;;-0.61;58.65
50394;BME280;36308;46.312;25.288;2023-03-19T01:44:41;96526.09;;;-0.61;58.66
50394;BME280;36308;46.312;25.288;2023-03-19T01:49:46;96530.06;;;-0.65;58.53
50394;BME280;36308;46.312;25.288;2023-03-19T01:52:16;96528.44;;;-0.66;58.93
50394;BME280;36308;46.312;25.288;2023-03-19T01:54:42;96528.78;;;-0.69;58.58
50394;BME280;36308;46.312;25.288;2023-03-19T01:57:10;96522.84;;;-0.71;58.87
50394;BME280;36308;46.312;25.288;2023-03-19T01:59:39;96528.50;;;-0.74;58.74
50394;BME280;36308;46.312;25.288;2023-03-19T02:02:32;96527.84;;;-0.76;58.80
50394;BME280;36308;46.312;25.288;2023-03-19T02:05:06;96523.53;;;-0.77;59.03
50394;BME280;36308;46.312;25.288;2023-03-19T02:07:32;96528.19;;;-0.79;58.51
50394;BME280;36308;46.312;25.288;2023-03-19T02:10:00;96530.16;;;-0.82;58.65
50394;BME280;36308;46.312;25.288;2023-03-19T02:12:26;96529.53;;;-0.84;58.99
50394;BME280;36308;46.312;25.288;2023-03-19T02:14:52;96533.50;;;-0.88;58.74
50394;BME280;36308;46.312;25.288;2023-03-19T02:17:19;96537.16;;;-0.89;58.93
50394;BME280;36308;46.312;25.288;2023-03-19T02:22:47;96541.13;;;-0.93;59.31
50394;BME280;36308;46.312;25.288;2023-03-19T02:25:30;96534.56;;;-0.97;59.20
50394;BME280;36308;46.312;25.288;2023-03-19T02:27:57;96538.16;;;-0.98;59.30
50394;BME280;36308;46.312;25.288;2023-03-19T02:30:29;96545.44;;;-1.00;59.29
50394;BME280;36308;46.312;25.288;2023-03-19T02:32:56;96534.44;;;-1.04;59.29
50394;BME280;36308;46.312;25.288;2023-03-19T02:35:21;96526.03;;;-1.07;59.17
50394;BME280;36308;46.312;25.288;2023-03-19T02:37:47;96533.94;;;-1.07;59.60
50394;BME280;36308;46.312;25.288;2023-03-19T02:40:20;96536.91;;;-1.10;59.47
50394;BME280;36308;46.312;25.288;2023-03-19T02:42:46;96543.19;;;-1.11;59.40
50394;BME280;36308;46.312;25.288;2023-03-19T02:45:12;96541.53;;;-1.12;59.50
50394;BME280;36308;46.312;25.288;2023-03-19T02:47:38;96536.63;;;-1.15;59.64
50394;BME280;36308;46.312;25.288;2023-03-19T02:50:04;96536.63;;;-1.15;59.62
50394;BME280;36308;46.312;25.288;2023-03-19T02:52:30;96543.88;;;-1.17;59.48
50394;BME280;36308;46.312;25.288;2023-03-19T02:54:56;96544.84;;;-1.18;59.63
50394;BME280;36308;46.312;25.288;2023-03-19T02:57:21;96541.75;;;-1.22;59.57
50394;BME280;36308;46.312;25.288;2023-03-19T02:59:47;96544.56;;;-1.24;59.74
50394;BME280;36308;46.312;25.288;2023-03-19T03:02:12;96549.19;;;-1.26;59.72
50394;BME280;36308;46.312;25.288;2023-03-19T03:04:38;96553.81;;;-1.28;59.57
50394;BME280;36308;46.312;25.288;2023-03-19T03:07:04;96545.25;;;-1.30;59.74
50394;BME280;36308;46.312;25.288;2023-03-19T03:09:30;96542.75;;;-1.31;59.86
50394;BME280;36308;46.312;25.288;2023-03-19T03:11:56;96536.03;;;-1.34;59.83
50394;BME280;36308;46.312;25.288;2023-03-19T03:14:21;96537.84;;;-1.34;59.94
50394;BME280;36308;46.312;25.288;2023-03-19T03:16:47;96532.91;;;-1.37;59.91
50394;BME280;36308;46.312;25.288;2023-03-19T03:19:13;96527.16;;;-1.41;59.99
50394;BME280;36308;46.312;25.288;2023-03-19T03:21:39;96521.03;;;-1.42;60.07
50394;BME280;36308;46.312;25.288;2023-03-19T03:24:04;96528.13;;;-1.42;60.18
50394;BME280;36308;46.312;25.288;2023-03-19T03:26:30;96531.78;;;-1.43;60.21
50394;BME280;36308;46.312;25.288;2023-03-19T03:28:56;96531.28;;;-1.47;60.08
50394;BME280;36308;46.312;25.288;2023-03-19T03:31:21;96532.28;;;-1.48;60.13
50394;BME280;36308;46.312;25.288;2023-03-19T03:33:48;96528.00;;;-1.49;60.31
50394;BME280;36308;46.312;25.288;2023-03-19T03:36:14;96529.97;;;-1.51;60.14
50394;BME280;36308;46.312;25.288;2023-03-19T03:38:40;96530.16;;;-1.52;60.34
50394;BME280;36308;46.312;25.288;2023-03-19T03:41:05;96531.31;;;-1.55;60.24
50394;BME280;36308;46.312;25.288;2023-03-19T03:43:31;96528.03;;;-1.57;60.31
50394;BME280;36308;46.312;25.288;2023-03-19T03:45:58;96530.16;;;-1.60;60.35
50394;BME280;36308;46.312;25.288;2023-03-19T03:48:23;96529.19;;;-1.59;60.39
50394;BME280;36308;46.312;25.288;2023-03-19T03:50:49;96532.81;;;-1.60;60.40
50394;BME280;36308;46.312;25.288;2023-03-19T03:53:14;96536.44;;;-1.61;60.61
50394;BME280;36308;46.312;25.288;2023-03-19T03:55:40;96538.44;;;-1.64;60.71
50394;BME280;36308;46.312;25.288;2023-03-19T03:58:06;96535.47;;;-1.69;60.59
50394;BME280;36308;46.312;25.288;2023-03-19T04:00:32;96541.38;;;-1.67;60.68
50394;BME280;36308;46.312;25.288;2023-03-19T04:02:58;96533.63;;;-1.68;60.65
50394;BME280;36308;46.312;25.288;2023-03-19T04:05:24;96535.63;;;-1.70;60.75
50394;BME280;36308;46.312;25.288;2023-03-19T04:07:50;96532.31;;;-1.72;60.63
50394;BME280;36308;46.312;25.288;2023-03-19T04:10:16;96532.53;;;-1.74;60.51
50394;BME280;36308;46.312;25.288;2023-03-19T04:12:41;96531.22;;;-1.78;60.78
50394;BME280;36308;46.312;25.288;2023-03-19T04:15:08;96533.69;;;-1.76;60.62
50394;BME280;36308;46.312;25.288;2023-03-19T04:17:35;96536.47;;;-1.78;60.57
50394;BME280;36308;46.312;25.288;2023-03-19T04:20:02;96527.91;;;-1.80;60.77
50394;BME280;36308;46.312;25.288;2023-03-19T04:22:29;96531.53;;;-1.81;60.66
50394;BME280;36308;46.312;25.288;2023-03-19T04:24:55;96532.53;;;-1.82;60.74
50394;BME280;36308;46.312;25.288;2023-03-19T04:27:20;96531.88;;;-1.84;61.22
50394;BME280;36308;46.312;25.288;2023-03-19T04:29:46;96535.50;;;-1.85;60.94
50394;BME280;36308;46.312;25.288;2023-03-19T04:32:11;96533.03;;;-1.87;61.10
50394;BME280;36308;46.312;25.288;2023-03-19T04:34:37;96535.84;;;-1.88;60.92
50394;BME280;36308;46.312;25.288;2023-03-19T04:37:03;96535.84;;;-1.88;60.92
50394;BME280;36308;46.312;25.288;2023-03-19T04:39:28;96533.38;;;-1.90;60.70
50394;BME280;36308;46.312;25.288;2023-03-19T04:41:54;96533.22;;;-1.96;61.35
50394;BME280;36308;46.312;25.288;2023-03-19T04:44:19;96538.97;;;-1.93;60.87
50394;BME280;36308;46.312;25.288;2023-03-19T04:46:46;96540.13;;;-1.95;60.83
50394;BME280;36308;46.312;25.288;2023-03-19T04:49:11;96540.13;;;-1.95;61.07
50394;BME280;36308;46.312;25.288;2023-03-19T04:51:37;96536.81;;;-1.97;61.10
50394;BME280;36308;46.312;25.288;2023-03-19T04:54:03;96532.56;;;-1.98;61.12
50394;BME280;36308;46.312;25.288;2023-03-19T04:56:30;96535.50;;;-2.01;61.33
50394;BME280;36308;46.312;25.288;2023-03-19T04:58:56;96537.16;;;-2.00;61.33
50394;BME280;36308;46.312;25.288;2023-03-19T05:01:21;96533.06;;;-2.03;61.47
50394;BME280;36308;46.312;25.288;2023-03-19T05:03:47;96544.41;;;-2.03;61.27
50394;BME280;36308;46.312;25.288;2023-03-19T05:06:13;96538.16;;;-2.01;61.50
50394;BME280;36308;46.312;25.288;2023-03-19T05:08:38;96534.69;;;-2.02;61.62
50394;BME280;36308;46.312;25.288;2023-03-19T05:11:04;96533.88;;;-2.03;61.69
50394;BME280;36308;46.312;25.288;2023-03-19T05:13:30;96541.63;;;-2.01;61.71
50394;BME280;36308;46.312;25.288;2023-03-19T05:15:55;96539.97;;;-2.02;61.53
50394;BME280;36308;46.312;25.288;2023-03-19T05:18:21;96544.72;;;-1.97;61.98
50394;BME280;36308;46.312;25.288;2023-03-19T05:20:47;96544.56;;;-1.96;62.14
50394;BME280;36308;46.312;25.288;2023-03-19T05:23:12;96547.03;;;-1.94;61.91
50394;BME280;36308;46.312;25.288;2023-03-19T05:25:38;96551.16;;;-1.92;62.11
50394;BME280;36308;46.312;25.288;2023-03-19T05:28:05;96545.72;;;-1.90;61.95
50394;BME280;36308;46.312;25.288;2023-03-19T05:30:32;96540.75;;;-1.85;62.23
50394;BME280;36308;46.312;25.288;2023-03-19T05:32:58;96536.34;;;-1.85;62.66
50394;BME280;36308;46.312;25.288;2023-03-19T05:35:25;96540.44;;;-1.82;62.60
50394;BME280;36308;46.312;25.288;2023-03-19T05:37:52;96543.38;;;-1.77;62.61
50394;BME280;36308;46.312;25.288;2023-03-19T05:40:17;96549.97;;;-1.73;62.57
50394;BME280;36308;46.312;25.288;2023-03-19T05:42:42;96556.56;;;-1.69;62.78
50394;BME280;36308;46.312;25.288;2023-03-19T05:45:08;96554.25;;;-1.64;62.78
50394;BME280;36308;46.312;25.288;2023-03-19T05:47:34;96551.91;;;-1.58;62.97
50394;BME280;36308;46.312;25.288;2023-03-19T05:49:59;96547.94;;;-1.54;63.30
50394;BME280;36308;46.312;25.288;2023-03-19T05:52:25;96552.06;;;-1.52;63.21
50394;BME280;36308;46.312;25.288;2023-03-19T05:54:51;96553.56;;;-1.49;63.46
50394;BME280;36308;46.312;25.288;2023-03-19T05:57:16;96545.13;;;-1.45;63.62
50394;BME280;36308;46.312;25.288;2023-03-19T05:59:42;96551.72;;;-1.40;63.79
50394;BME280;36308;46.312;25.288;2023-03-19T06:02:08;96554.84;;;-1.37;63.96
50394;BME280;36308;46.312;25.288;2023-03-19T06:04:34;96559.09;;;-1.28;64.25
50394;BME280;36308;46.312;25.288;2023-03-19T06:07:00;96554.94;;;-1.22;64.29
50394;BME280;36308;46.312;25.288;2023-03-19T06:09:25;96556.91;;;-1.16;64.38
50394;BME280;36308;46.312;25.288;2023-03-19T06:11:51;96560.31;;;-1.07;64.32
50394;BME280;36308;46.312;25.288;2023-03-19T06:14:16;96560.28;;;-0.99;64.28
50394;BME280;36308;46.312;25.288;2023-03-19T06:16:42;96565.53;;;-0.91;64.58
50394;BME280;36308;46.312;25.288;2023-03-19T06:19:07;96570.78;;;-0.83;64.71
50394;BME280;36308;46.312;25.288;2023-03-19T06:21:33;96569.72;;;-0.73;64.82
50394;BME280;36308;46.312;25.288;2023-03-19T06:23:58;96561.59;;;-0.64;64.63
50394;BME280;36308;46.312;25.288;2023-03-19T06:26:24;96559.72;;;-0.55;64.30
50394;BME280;36308;46.312;25.288;2023-03-19T06:28:50;96560.31;;;-0.45;64.31
50394;BME280;36308;46.312;25.288;2023-03-19T06:31:16;96565.38;;;-0.35;64.31
50394;BME280;36308;46.312;25.288;2023-03-19T06:33:42;96564.94;;;-0.24;64.41
50394;BME280;36308;46.312;25.288;2023-03-19T06:36:07;96561.06;;;-0.13;64.46
50394;BME280;36308;46.312;25.288;2023-03-19T06:38:33;96563.13;;;0.00;64.39
50394;BME280;36308;46.312;25.288;2023-03-19T06:41:00;96562.53;;;0.13;64.25
50394;BME280;36308;46.312;25.288;2023-03-19T06:43:26;96566.38;;;0.25;64.48
50394;BME280;36308;46.312;25.288;2023-03-19T06:46:10;96572.69;;;0.39;63.86
50394;BME280;36308;46.312;25.288;2023-03-19T06:48:36;96567.41;;;0.54;63.72
50394;BME280;36308;46.312;25.288;2023-03-19T06:51:02;96570.25;;;0.67;63.73
50394;BME280;36308;46.312;25.288;2023-03-19T06:53:27;96577.38;;;0.82;63.83
50394;BME280;36308;46.312;25.288;2023-03-19T06:55:53;96575.53;;;0.97;63.64
50394;BME280;36308;46.312;25.288;2023-03-19T06:58:18;96572.88;;;1.12;63.45
50394;BME280;36308;46.312;25.288;2023-03-19T07:00:45;96566.53;;;1.28;63.42
50394;BME280;36308;46.312;25.288;2023-03-19T07:03:10;96563.69;;;1.44;63.24
50394;BME280;36308;46.312;25.288;2023-03-19T07:05:36;96553.84;;;1.59;63.47
50394;BME280;36308;46.312;25.288;2023-03-19T07:08:02;96557.28;;;1.75;62.66
50394;BME280;36308;46.312;25.288;2023-03-19T07:10:27;96555.38;;;1.90;62.71
50394;BME280;36308;46.312;25.288;2023-03-19T07:12:53;96553.09;;;2.09;62.54
50394;BME280;36308;46.312;25.288;2023-03-19T07:15:19;96560.78;;;2.25;62.50
50394;BME280;36308;46.312;25.288;2023-03-19T07:17:46;96562.75;;;2.45;61.94
50394;BME280;36308;46.312;25.288;2023-03-19T07:20:12;96560.41;;;2.63;61.63
50394;BME280;36308;46.312;25.288;2023-03-19T07:22:38;96567.50;;;2.84;61.93
50394;BME280;36308;46.312;25.288;2023-03-19T07:25:03;96561.06;;;3.07;61.57
50394;BME280;36308;46.312;25.288;2023-03-19T07:27:29;96561.16;;;3.27;61.39
50394;BME280;36308;46.312;25.288;2023-03-19T07:29:55;96560.03;;;3.49;60.63
50394;BME280;36308;46.312;25.288;2023-03-19T07:32:21;96558.03;;;3.71;60.35
50394;BME280;36308;46.312;25.288;2023-03-19T07:34:48;96560.94;;;3.96;59.83
50394;BME280;36308;46.312;25.288;2023-03-19T07:37:13;96542.94;;;4.18;59.51
50394;BME280;36308;46.312;25.288;2023-03-19T07:39:39;96547.66;;;4.43;58.62
50394;BME280;36308;46.312;25.288;2023-03-19T07:42:05;96544.16;;;4.69;58.92
50394;BME280;36308;46.312;25.288;2023-03-19T07:44:30;96538.72;;;4.96;58.16
50394;BME280;36308;46.312;25.288;2023-03-19T07:46:56;96538.25;;;5.25;57.60
50394;BME280;36308;46.312;25.288;2023-03-19T07:49:22;96545.09;;;5.53;56.89
50394;BME280;36308;46.312;25.288;2023-03-19T07:51:48;96541.22;;;5.81;56.80
50394;BME280;36308;46.312;25.288;2023-03-19T07:54:14;96535.31;;;6.11;56.82
50394;BME280;36308;46.312;25.288;2023-03-19T07:56:39;96533.84;;;6.40;56.14
50394;BME280;36308;46.312;25.288;2023-03-19T07:59:05;96537.50;;;6.71;55.33
50394;BME280;36308;46.312;25.288;2023-03-19T08:01:31;96545.59;;;7.01;54.55
50394;BME280;36308;46.312;25.288;2023-03-19T08:03:56;96541.59;;;7.28;53.53
50394;BME280;36308;46.312;25.288;2023-03-19T08:06:22;96546.59;;;7.55;52.18
50394;BME280;36308;46.312;25.288;2023-03-19T08:08:47;96532.75;;;7.77;51.72
50394;BME280;36308;46.312;25.288;2023-03-19T08:11:13;96539.34;;;8.04;50.79
50394;BME280;36308;46.312;25.288;2023-03-19T08:13:39;96538.94;;;8.31;50.38
50394;BME280;36308;46.312;25.288;2023-03-19T08:16:04;96532.34;;;8.57;50.02
50394;BME280;36308;46.312;25.288;2023-03-19T08:18:30;96534.81;;;8.82;49.83
50394;BME280;36308;46.312;25.288;2023-03-19T08:20:56;96531.63;;;9.09;49.63
50394;BME280;36308;46.312;25.288;2023-03-19T08:23:22;96536.56;;;9.41;48.73
50394;BME280;36308;46.312;25.288;2023-03-19T08:25:47;96528.28;;;9.71;47.65
50394;BME280;36308;46.312;25.288;2023-03-19T08:28:15;96533.66;;;10.00;46.67
50394;BME280;36308;46.312;25.288;2023-03-19T08:30:41;96528.72;;;10.25;46.33
50394;BME280;36308;46.312;25.288;2023-03-19T08:33:06;96529.50;;;10.55;46.43
50394;BME280;36308;46.312;25.288;2023-03-19T08:35:33;96527.69;;;10.77;45.51
50394;BME280;36308;46.312;25.288;2023-03-19T08:37:58;96524.56;;;11.02;45.61
50394;BME280;36308;46.312;25.288;2023-03-19T08:40:24;96519.75;;;11.26;43.83
50394;BME280;36308;46.312;25.288;2023-03-19T08:42:50;96515.13;;;11.44;43.55
50394;BME280;36308;46.312;25.288;2023-03-19T08:45:15;96526.19;;;11.69;42.97
50394;BME280;36308;46.312;25.288;2023-03-19T08:47:42;96528.78;;;11.86;41.96
50394;BME280;36308;46.312;25.288;2023-03-19T08:50:08;96524.97;;;12.04;41.72
50394;BME280;36308;46.312;25.288;2023-03-19T08:52:34;96526.22;;;12.24;40.52
50394;BME280;36308;46.312;25.288;2023-03-19T08:54:59;96520.97;;;12.39;40.24
50394;BME280;36308;46.312;25.288;2023-03-19T08:57:25;96522.44;;;12.57;40.43
50394;BME280;36308;46.312;25.288;2023-03-19T08:59:53;96521.16;;;12.65;39.41
50394;BME280;36308;46.312;25.288;2023-03-19T09:02:18;96516.63;;;12.76;39.23
50394;BME280;36308;46.312;25.288;2023-03-19T09:04:44;96514.88;;;12.97;39.48
50394;BME280;36308;46.312;25.288;2023-03-19T09:07:10;96525.31;;;13.25;39.04
50394;BME280;36308;46.312;25.288;2023-03-19T09:09:41;96516.28;;;13.52;39.15
50394;BME280;36308;46.312;25.288;2023-03-19T09:12:08;96512.03;;;13.82;39.06
50394;BME280;36308;46.312;25.288;2023-03-19T09:14:34;96510.50;;;14.11;38.14
50394;BME280;36308;46.312;25.288;2023-03-19T09:17:00;96508.34;;;14.39;37.47
50394;BME280;36308;46.312;25.288;2023-03-19T09:19:26;96504.31;;;14.62;36.27
50394;BME280;36308;46.312;25.288;2023-03-19T09:21:52;96502.94;;;14.80;35.43
50394;BME280;36308;46.312;25.288;2023-03-19T09:24:17;96498.03;;;14.98;35.40
50394;BME280;36308;46.312;25.288;2023-03-19T09:26:44;96490.97;;;15.17;35.06
50394;BME280;36308;46.312;25.288;2023-03-19T09:29:09;96501.16;;;15.41;34.35
50394;BME280;36308;46.312;25.288;2023-03-19T09:31:36;96487.53;;;15.61;34.01
50394;BME280;36308;46.312;25.288;2023-03-19T09:34:01;96490.38;;;15.85;33.29
50394;BME280;36308;46.312;25.288;2023-03-19T09:36:28;96492.72;;;16.07;33.56
50394;BME280;36308;46.312;25.288;2023-03-19T09:38:53;96479.84;;;16.23;32.86
50394;BME280;36308;46.312;25.288;2023-03-19T09:47:14;96473.06;;;16.89;31.60
50394;BME280;36308;46.312;25.288;2023-03-19T09:49:46;96470.97;;;17.05;31.16
50394;BME280;36308;46.312;25.288;2023-03-19T09:52:34;96467.59;;;17.19;30.89
50394;BME280;36308;46.312;25.288;2023-03-19T09:57:54;96463.16;;;17.47;30.09
50394;BME280;36308;46.312;25.288;2023-03-19T10:00:22;96455.09;;;17.61;29.63
50394;BME280;36308;46.312;25.288;2023-03-19T10:03:00;96452.47;;;17.74;29.93
50394;BME280;36308;46.312;25.288;2023-03-19T10:05:40;96447.34;;;17.92;29.98
50394;BME280;36308;46.312;25.288;2023-03-19T10:08:23;96441.63;;;18.12;30.26
50394;BME280;36308;46.312;25.288;2023-03-19T10:16:43;96413.72;;;18.53;28.02
50394;BME280;36308;46.312;25.288;2023-03-19T10:19:13;96433.00;;;18.71;27.97
50394;BME280;36308;46.312;25.288;2023-03-19T10:21:56;96428.44;;;18.85;28.15
50394;BME280;36308;46.312;25.288;2023-03-19T10:24:32;96418.84;;;19.02;28.07
50394;BME280;36308;46.312;25.288;2023-03-19T10:27:08;96427.72;;;19.21;29.22
50394;BME280;36308;46.312;25.288;2023-03-19T10:29:36;96432.56;;;19.38;27.74
50394;BME280;36308;46.312;25.288;2023-03-19T10:32:19;96426.91;;;19.48;27.17
50394;BME280;36308;46.312;25.288;2023-03-19T10:34:49;96425.06;;;19.57;26.53
50394;BME280;36308;46.312;25.288;2023-03-19T10:37:20;96414.25;;;19.66;26.60
50394;BME280;36308;46.312;25.288;2023-03-19T10:39:48;96414.56;;;19.78;25.81
50394;BME280;36308;46.312;25.288;2023-03-19T10:47:25;96398.91;;;20.07;25.62
50394;BME280;36308;46.312;25.288;2023-03-19T10:49:52;96400.69;;;20.11;25.79
50394;BME280;36308;46.312;25.288;2023-03-19T10:52:23;96405.53;;;20.14;26.08
50394;BME280;36308;46.312;25.288;2023-03-19T10:55:12;96393.06;;;20.22;26.20
50394;BME280;36308;46.312;25.288;2023-03-19T10:57:40;96392.84;;;20.41;26.67
50394;BME280;36308;46.312;25.288;2023-03-19T11:00:15;96391.56;;;20.61;26.90
50394;BME280;36308;46.312;25.288;2023-03-19T11:02:47;96392.31;;;20.84;26.29
50394;BME280;36308;46.312;25.288;2023-03-19T11:07:39;96385.03;;;21.11;25.07
50394;BME280;36308;46.312;25.288;2023-03-19T11:10:12;96384.25;;;21.19;25.01
50394;BME280;36308;46.312;25.288;2023-03-19T11:12:39;96381.34;;;21.24;24.42
50394;BME280;36308;46.312;25.288;2023-03-19T11:15:17;96382.31;;;21.28;24.74
50394;BME280;36308;46.312;25.288;2023-03-19T11:18:04;96376.56;;;21.38;25.15
50394;BME280;36308;46.312;25.288;2023-03-19T11:20:37;96366.94;;;21.50;25.03
50394;BME280;36308;46.312;25.288;2023-03-19T11:23:13;96363.09;;;21.59;25.02
50394;BME280;36308;46.312;25.288;2023-03-19T11:25:45;96357.00;;;21.71;25.01
50394;BME280;36308;46.312;25.288;2023-03-19T11:28:14;96366.00;;;21.80;24.89
50394;BME280;36308;46.312;25.288;2023-03-19T11:47:08;96334.47;;;21.92;24.32
50394;BME280;36308;46.312;25.288;2023-03-19T11:52:40;96335.22;;;22.10;24.19
50394;BME280;36308;46.312;25.288;2023-03-19T11:55:36;96337.97;;;22.18;24.05
50394;BME280;36308;46.312;25.288;2023-03-19T12:00:53;96332.94;;;22.38;24.78
50394;BME280;36308;46.312;25.288;2023-03-19T12:06:15;96328.84;;;22.62;23.95
50394;BME280;36308;46.312;25.288;2023-03-19T12:08:48;96336.22;;;22.70;23.76
50394;BME280;36308;46.312;25.288;2023-03-19T12:16:57;96320.72;;;22.74;23.93
50394;BME280;36308;46.312;25.288;2023-03-19T12:27:39;96312.44;;;22.91;24.15
50394;BME280;36308;46.312;25.288;2023-03-19T12:30:23;96309.34;;;23.02;24.24
50394;BME280;36308;46.312;25.288;2023-03-19T12:35:46;96304.13;;;23.09;23.70
50394;BME280;36308;46.312;25.288;2023-03-19T12:40:58;96295.44;;;23.07;23.58
50394;BME280;36308;46.312;25.288;2023-03-19T12:43:33;96296.38;;;23.11;23.94
50394;BME280;36308;46.312;25.288;2023-03-19T12:49:04;96281.81;;;23.19;23.81
50394;BME280;36308;46.312;25.288;2023-03-19T12:51:35;96275.00;;;23.25;23.90
50394;BME280;36308;46.312;25.288;2023-03-19T12:54:26;96279.16;;;23.31;23.99
50394;BME280;36308;46.312;25.288;2023-03-19T13:10:30;96267.16;;;23.15;23.33
50394;BME280;36308;46.312;25.288;2023-03-19T13:12:57;96262.16;;;23.17;23.68
50394;BME280;36308;46.312;25.288;2023-03-19T13:20:55;96261.06;;;23.30;23.70
50394;BME280;36308;46.312;25.288;2023-03-19T13:23:30;96258.59;;;23.37;23.97
50394;BME280;36308;46.312;25.288;2023-03-19T13:26:00;96247.41;;;23.43;24.06
50394;BME280;36308;46.312;25.288;2023-03-19T13:28:55;96238.19;;;23.47;24.01
50394;BME280;36308;46.312;25.288;2023-03-19T13:31:24;96237.66;;;23.54;23.98
50394;BME280;36308;46.312;25.288;2023-03-19T13:34:03;96236.03;;;23.53;23.13
50394;BME280;36308;46.312;25.288;2023-03-19T13:36:33;96232.44;;;23.40;22.53
50394;BME280;36308;46.312;25.288;2023-03-19T13:39:00;96233.84;;;23.25;22.38
50394;BME280;36308;46.312;25.288;2023-03-19T13:46:46;96229.31;;;23.08;23.44
50394;BME280;36308;46.312;25.288;2023-03-19T13:49:32;96221.72;;;23.05;23.38
50394;BME280;36308;46.312;25.288;2023-03-19T13:54:44;96208.38;;;23.04;23.58
50394;BME280;36308;46.312;25.288;2023-03-19T13:59:40;96219.94;;;23.09;23.33
50394;BME280;36308;46.312;25.288;2023-03-19T14:07:17;96211.25;;;22.98;22.36
50394;BME280;36308;46.312;25.288;2023-03-19T14:10:07;96202.31;;;22.89;22.85
50394;BME280;36308;46.312;25.288;2023-03-19T14:12:40;96202.81;;;22.83;22.28
50394;BME280;36308;46.312;25.288;2023-03-19T14:17:36;96196.25;;;22.45;21.88
50394;BME280;36308;46.312;25.288;2023-03-19T14:28:18;96198.41;;;21.92;22.26
50394;BME280;36308;46.312;25.288;2023-03-19T14:30:47;96190.97;;;21.93;22.37
50394;BME280;36308;46.312;25.288;2023-03-19T14:33:31;96189.38;;;21.92;22.69
50394;BME280;36308;46.312;25.288;2023-03-19T14:36:03;96190.97;;;21.93;22.71
50394;BME280;36308;46.312;25.288;2023-03-19T14:39:02;96183.44;;;21.90;22.55
50394;BME280;36308;46.312;25.288;2023-03-19T14:41:35;96192.75;;;21.89;22.77
50394;BME280;36308;46.312;25.288;2023-03-19T14:52:05;96185.78;;;21.44;22.93
50394;BME280;36308;46.312;25.288;2023-03-19T14:54:52;96178.19;;;21.32;23.15
50394;BME280;36308;46.312;25.288;2023-03-19T14:57:30;96176.28;;;21.24;23.23
50394;BME280;36308;46.312;25.288;2023-03-19T14:59:57;96179.66;;;21.12;23.41
50394;BME280;36308;46.312;25.288;2023-03-19T15:04:55;96173.72;;;20.93;23.49
50394;BME280;36308;46.312;25.288;2023-03-19T15:07:29;96175.31;;;20.85;23.34
50394;BME280;36308;46.312;25.288;2023-03-19T15:09:58;96173.06;;;20.78;23.52